sensor_id;sensor_type;location;lat;lon;timestamp;P1;durP1;ratioP1;P2;durP2;ratioP2
1106;SDS011;540;49.448;8.612;2023-09-19T00:00:37;3.35;;;0.90;;
1106;SDS011;540;49.448;8.612;2023-09-19T00:03:08;1.38;;;0.88;;
1106;SDS011;540;49.448;8.612;2023-09-19T00:05:36;1.75;;;0.80;;
1106;SDS011;540;49.448;8.612;2023-09-19T00:08:05;4.53;;;1.15;;
1106;SDS011;540;49.448;8.612;2023-09-19T00:10:33;9.50;;;1.20;;
1106;SDS011;540;49.448;8.612;2023-09-19T00:13:02;3.58;;;1.00;;
1106;SDS011;540;49.448;8.612;2023-09-19T00:15:37;2.47;;;1.13;;
1106;SDS011;540;49.448;8.612;2023-09-19T00:18:06;0.82;;;0.73;;
1106;SDS011;540;49.448;8.612;2023-09-19T00:20:35;3.80;;;0.82;;
1106;SDS011;540;49.448;8.612;2023-09-19T00:23:04;2.08;;;0.90;;
1106;SDS011;540;49.448;8.612;2023-09-19T00:25:35;1.08;;;0.80;;
1106;SDS011;540;49.448;8.612;2023-09-19T00:28:04;1.40;;;0.98;;
1106;SDS011;540;49.448;8.612;2023-09-19T00:30:33;3.75;;;1.17;;
1106;SDS011;540;49.448;8.612;2023-09-19T00:33:06;4.07;;;0.98;;
1106;SDS011;540;49.448;8.612;2023-09-19T00:35:34;0.98;;;0.90;;
1106;SDS011;540;49.448;8.612;2023-09-19T00:38:03;2.53;;;1.20;;
1106;SDS011;540;49.448;8.612;2023-09-19T00:40:32;5.20;;;1.05;;
1106;SDS011;540;49.448;8.612;2023-09-19T00:43:01;1.55;;;1.10;;
1106;SDS011;540;49.448;8.612;2023-09-19T00:45:29;4.30;;;1.15;;
1106;SDS011;540;49.448;8.612;2023-09-19T00:47:57;3.53;;;1.35;;
1106;SDS011;540;49.448;8.612;2023-09-19T00:50:40;4.35;;;1.35;;
1106;SDS011;540;49.448;8.612;2023-09-19T00:53:10;2.10;;;0.90;;
1106;SDS011;540;49.448;8.612;2023-09-19T00:55:41;2.63;;;1.30;;
1106;SDS011;540;49.448;8.612;2023-09-19T00:58:10;4.40;;;1.30;;
1106;SDS011;540;49.448;8.612;2023-09-19T01:00:38;4.47;;;1.35;;
1106;SDS011;540;49.448;8.612;2023-09-19T01:03:10;2.92;;;1.30;;
1106;SDS011;540;49.448;8.612;2023-09-19T01:05:41;4.07;;;1.67;;
1106;SDS011;540;49.448;8.612;2023-09-19T01:08:09;2.35;;;1.25;;
1106;SDS011;540;49.448;8.612;2023-09-19T01:10:38;2.00;;;1.50;;
1106;SDS011;540;49.448;8.612;2023-09-19T01:13:13;2.00;;;1.40;;
1106;SDS011;540;49.448;8.612;2023-09-19T01:15:51;1.67;;;1.20;;
1106;SDS011;540;49.448;8.612;2023-09-19T01:18:27;2.40;;;1.10;;
1106;SDS011;540;49.448;8.612;2023-09-19T01:21:05;1.63;;;1.15;;
1106;SDS011;540;49.448;8.612;2023-09-19T01:23:41;4.85;;;2.05;;
1106;SDS011;540;49.448;8.612;2023-09-19T01:26:30;2.85;;;1.00;;
1106;SDS011;540;49.448;8.612;2023-09-19T01:29:13;1.70;;;0.85;;
1106;SDS011;540;49.448;8.612;2023-09-19T01:32:01;5.70;;;1.60;;
1106;SDS011;540;49.448;8.612;2023-09-19T01:34:43;2.97;;;1.23;;
1106;SDS011;540;49.448;8.612;2023-09-19T01:37:13;3.28;;;1.33;;
1106;SDS011;540;49.448;8.612;2023-09-19T01:39:46;3.40;;;1.80;;
1106;SDS011;540;49.448;8.612;2023-09-19T01:42:18;3.83;;;1.15;;
1106;SDS011;540;49.448;8.612;2023-09-19T01:44:57;2.15;;;1.25;;
1106;SDS011;540;49.448;8.612;2023-09-19T01:47:37;2.42;;;1.23;;
1106;SDS011;540;49.448;8.612;2023-09-19T01:50:12;7.22;;;1.63;;
1106;SDS011;540;49.448;8.612;2023-09-19T01:52:46;4.63;;;1.85;;
1106;SDS011;540;49.448;8.612;2023-09-19T01:55:20;1.77;;;1.00;;
1106;SDS011;540;49.448;8.612;2023-09-19T01:57:49;1.73;;;1.20;;
1106;SDS011;540;49.448;8.612;2023-09-19T02:00:22;2.90;;;0.85;;
1106;SDS011;540;49.448;8.612;2023-09-19T02:02:54;2.88;;;1.10;;
1106;SDS011;540;49.448;8.612;2023-09-19T02:05:25;4.30;;;1.23;;
1106;SDS011;540;49.448;8.612;2023-09-19T02:07:54;3.22;;;1.48;;
1106;SDS011;540;49.448;8.612;2023-09-19T02:10:22;2.00;;;1.23;;
1106;SDS011;540;49.448;8.612;2023-09-19T02:12:50;3.03;;;1.10;;
1106;SDS011;540;49.448;8.612;2023-09-19T02:15:18;3.30;;;1.08;;
1106;SDS011;540;49.448;8.612;2023-09-19T02:17:46;3.92;;;1.05;;
1106;SDS011;540;49.448;8.612;2023-09-19T02:20:14;2.97;;;1.05;;
1106;SDS011;540;49.448;8.612;2023-09-19T02:22:43;2.85;;;1.45;;
1106;SDS011;540;49.448;8.612;2023-09-19T02:25:11;3.30;;;1.55;;
1106;SDS011;540;49.448;8.612;2023-09-19T02:27:40;2.13;;;1.30;;
1106;SDS011;540;49.448;8.612;2023-09-19T02:30:08;2.40;;;1.23;;
1106;SDS011;540;49.448;8.612;2023-09-19T02:32:36;3.13;;;1.38;;
1106;SDS011;540;49.448;8.612;2023-09-19T02:35:06;2.67;;;1.17;;
1106;SDS011;540;49.448;8.612;2023-09-19T02:37:38;3.80;;;1.40;;
1106;SDS011;540;49.448;8.612;2023-09-19T02:40:07;1.70;;;1.10;;
1106;SDS011;540;49.448;8.612;2023-09-19T02:42:45;2.75;;;1.15;;
1106;SDS011;540;49.448;8.612;2023-09-19T02:45:15;4.13;;;1.27;;
1106;SDS011;540;49.448;8.612;2023-09-19T02:47:45;1.92;;;1.17;;
1106;SDS011;540;49.448;8.612;2023-09-19T02:50:13;3.97;;;1.00;;
1106;SDS011;540;49.448;8.612;2023-09-19T02:52:44;6.00;;;1.63;;
1106;SDS011;540;49.448;8.612;2023-09-19T02:55:14;2.33;;;1.40;;
1106;SDS011;540;49.448;8.612;2023-09-19T02:57:45;3.20;;;1.13;;
1106;SDS011;540;49.448;8.612;2023-09-19T03:00:14;2.33;;;1.25;;
1106;SDS011;540;49.448;8.612;2023-09-19T03:02:43;2.80;;;1.30;;
1106;SDS011;540;49.448;8.612;2023-09-19T03:05:12;3.28;;;1.63;;
1106;SDS011;540;49.448;8.612;2023-09-19T03:07:41;3.17;;;1.13;;
1106;SDS011;540;49.448;8.612;2023-09-19T03:10:13;1.63;;;1.00;;
1106;SDS011;540;49.448;8.612;2023-09-19T03:12:42;4.43;;;1.80;;
1106;SDS011;540;49.448;8.612;2023-09-19T03:15:10;2.85;;;1.25;;
1106;SDS011;540;49.448;8.612;2023-09-19T03:17:38;1.92;;;1.00;;
1106;SDS011;540;49.448;8.612;2023-09-19T03:20:10;3.58;;;1.30;;
1106;SDS011;540;49.448;8.612;2023-09-19T03:22:40;2.17;;;1.40;;
1106;SDS011;540;49.448;8.612;2023-09-19T03:25:08;3.17;;;1.35;;
1106;SDS011;540;49.448;8.612;2023-09-19T03:27:39;2.85;;;1.15;;
1106;SDS011;540;49.448;8.612;2023-09-19T03:30:08;1.45;;;1.20;;
1106;SDS011;540;49.448;8.612;2023-09-19T03:32:43;3.70;;;1.85;;
1106;SDS011;540;49.448;8.612;2023-09-19T03:35:13;3.05;;;1.40;;
1106;SDS011;540;49.448;8.612;2023-09-19T03:37:41;5.97;;;1.77;;
1106;SDS011;540;49.448;8.612;2023-09-19T03:40:09;4.38;;;1.60;;
1106;SDS011;540;49.448;8.612;2023-09-19T03:42:40;2.92;;;1.60;;
1106;SDS011;540;49.448;8.612;2023-09-19T03:45:09;3.30;;;1.30;;
1106;SDS011;540;49.448;8.612;2023-09-19T03:47:39;3.97;;;1.23;;
1106;SDS011;540;49.448;8.612;2023-09-19T03:50:08;4.03;;;1.50;;
1106;SDS011;540;49.448;8.612;2023-09-19T03:52:37;5.82;;;2.35;;
1106;SDS011;540;49.448;8.612;2023-09-19T03:55:05;4.18;;;1.30;;
1106;SDS011;540;49.448;8.612;2023-09-19T03:57:35;3.47;;;1.30;;
1106;SDS011;540;49.448;8.612;2023-09-19T04:00:06;3.55;;;2.00;;
1106;SDS011;540;49.448;8.612;2023-09-19T04:02:38;2.75;;;1.70;;
1106;SDS011;540;49.448;8.612;2023-09-19T04:05:06;3.90;;;1.40;;
1106;SDS011;540;49.448;8.612;2023-09-19T04:07:35;4.10;;;1.70;;
1106;SDS011;540;49.448;8.612;2023-09-19T04:10:03;2.55;;;1.92;;
1106;SDS011;540;49.448;8.612;2023-09-19T04:12:32;7.60;;;1.55;;
1106;SDS011;540;49.448;8.612;2023-09-19T04:15:00;2.47;;;1.30;;
1106;SDS011;540;49.448;8.612;2023-09-19T04:17:30;3.72;;;1.42;;
1106;SDS011;540;49.448;8.612;2023-09-19T04:19:59;4.13;;;1.80;;
1106;SDS011;540;49.448;8.612;2023-09-19T04:22:27;2.20;;;1.58;;
1106;SDS011;540;49.448;8.612;2023-09-19T04:24:55;3.97;;;1.48;;
1106;SDS011;540;49.448;8.612;2023-09-19T04:27:23;4.55;;;1.40;;
1106;SDS011;540;49.448;8.612;2023-09-19T04:29:51;3.10;;;1.58;;
1106;SDS011;540;49.448;8.612;2023-09-19T04:32:19;2.35;;;1.40;;
1106;SDS011;540;49.448;8.612;2023-09-19T04:34:48;4.72;;;2.10;;
1106;SDS011;540;49.448;8.612;2023-09-19T04:37:16;2.33;;;1.40;;
1106;SDS011;540;49.448;8.612;2023-09-19T04:39:44;4.00;;;1.45;;
1106;SDS011;540;49.448;8.612;2023-09-19T04:42:12;2.80;;;1.30;;
1106;SDS011;540;49.448;8.612;2023-09-19T04:44:40;2.25;;;1.38;;
1106;SDS011;540;49.448;8.612;2023-09-19T04:47:08;3.83;;;1.70;;
1106;SDS011;540;49.448;8.612;2023-09-19T04:49:38;5.03;;;1.70;;
1106;SDS011;540;49.448;8.612;2023-09-19T04:52:08;2.83;;;1.88;;
1106;SDS011;540;49.448;8.612;2023-09-19T04:54:36;4.40;;;1.80;;
1106;SDS011;540;49.448;8.612;2023-09-19T04:57:04;2.45;;;1.50;;
1106;SDS011;540;49.448;8.612;2023-09-19T04:59:32;4.50;;;1.73;;
1106;SDS011;540;49.448;8.612;2023-09-19T05:02:00;3.53;;;1.80;;
1106;SDS011;540;49.448;8.612;2023-09-19T05:04:28;5.97;;;2.03;;
1106;SDS011;540;49.448;8.612;2023-09-19T05:06:56;4.93;;;2.15;;
1106;SDS011;540;49.448;8.612;2023-09-19T05:09:26;6.13;;;1.65;;
1106;SDS011;540;49.448;8.612;2023-09-19T05:11:54;4.25;;;1.77;;
1106;SDS011;540;49.448;8.612;2023-09-19T05:14:22;4.25;;;1.50;;
1106;SDS011;540;49.448;8.612;2023-09-19T05:16:50;2.00;;;1.63;;
1106;SDS011;540;49.448;8.612;2023-09-19T05:19:18;5.43;;;2.30;;
1106;SDS011;540;49.448;8.612;2023-09-19T05:21:46;4.15;;;2.17;;
1106;SDS011;540;49.448;8.612;2023-09-19T05:24:15;3.90;;;1.75;;
1106;SDS011;540;49.448;8.612;2023-09-19T05:26:44;5.28;;;1.85;;
1106;SDS011;540;49.448;8.612;2023-09-19T05:29:12;6.10;;;1.95;;
1106;SDS011;540;49.448;8.612;2023-09-19T05:31:40;2.40;;;1.65;;
1106;SDS011;540;49.448;8.612;2023-09-19T05:34:09;3.42;;;1.67;;
1106;SDS011;540;49.448;8.612;2023-09-19T05:36:37;3.08;;;1.73;;
1106;SDS011;540;49.448;8.612;2023-09-19T05:39:05;7.40;;;2.22;;
1106;SDS011;540;49.448;8.612;2023-09-19T05:41:35;2.65;;;1.95;;
1106;SDS011;540;49.448;8.612;2023-09-19T05:44:07;4.65;;;2.75;;
1106;SDS011;540;49.448;8.612;2023-09-19T05:46:35;3.30;;;2.35;;
1106;SDS011;540;49.448;8.612;2023-09-19T05:49:03;5.63;;;2.25;;
1106;SDS011;540;49.448;8.612;2023-09-19T05:51:31;5.40;;;1.75;;
1106;SDS011;540;49.448;8.612;2023-09-19T05:53:59;4.80;;;2.05;;
1106;SDS011;540;49.448;8.612;2023-09-19T05:56:27;3.35;;;1.90;;
1106;SDS011;540;49.448;8.612;2023-09-19T05:58:55;4.22;;;2.35;;
1106;SDS011;540;49.448;8.612;2023-09-19T06:01:24;5.10;;;2.75;;
1106;SDS011;540;49.448;8.612;2023-09-19T06:03:52;4.38;;;1.75;;
1106;SDS011;540;49.448;8.612;2023-09-19T06:06:20;3.13;;;1.55;;
1106;SDS011;540;49.448;8.612;2023-09-19T06:08:50;5.07;;;2.20;;
1106;SDS011;540;49.448;8.612;2023-09-19T06:11:18;5.35;;;1.85;;
1106;SDS011;540;49.448;8.612;2023-09-19T06:13:46;3.00;;;1.70;;
1106;SDS011;540;49.448;8.612;2023-09-19T06:16:14;3.75;;;1.77;;
1106;SDS011;540;49.448;8.612;2023-09-19T06:18:44;4.65;;;1.73;;
1106;SDS011;540;49.448;8.612;2023-09-19T06:21:11;3.22;;;2.00;;
1106;SDS011;540;49.448;8.612;2023-09-19T06:23:39;4.03;;;2.33;;
1106;SDS011;540;49.448;8.612;2023-09-19T06:26:07;6.10;;;2.03;;
1106;SDS011;540;49.448;8.612;2023-09-19T06:28:35;6.45;;;2.00;;
1106;SDS011;540;49.448;8.612;2023-09-19T06:31:03;2.08;;;1.42;;
1106;SDS011;540;49.448;8.612;2023-09-19T06:33:36;7.43;;;2.85;;
1106;SDS011;540;49.448;8.612;2023-09-19T06:36:07;8.02;;;2.55;;
1106;SDS011;540;49.448;8.612;2023-09-19T06:38:35;8.25;;;2.70;;
1106;SDS011;540;49.448;8.612;2023-09-19T06:41:05;2.67;;;1.40;;
1106;SDS011;540;49.448;8.612;2023-09-19T06:43:33;2.63;;;1.80;;
1106;SDS011;540;49.448;8.612;2023-09-19T06:46:01;3.75;;;2.05;;
1106;SDS011;540;49.448;8.612;2023-09-19T06:48:30;3.90;;;1.58;;
1106;SDS011;540;49.448;8.612;2023-09-19T06:50:59;5.35;;;2.28;;
1106;SDS011;540;49.448;8.612;2023-09-19T06:53:32;5.22;;;1.70;;
1106;SDS011;540;49.448;8.612;2023-09-19T06:56:02;2.85;;;1.40;;
1106;SDS011;540;49.448;8.612;2023-09-19T06:58:30;5.20;;;1.70;;
1106;SDS011;540;49.448;8.612;2023-09-19T07:00:58;3.95;;;1.73;;
1106;SDS011;540;49.448;8.612;2023-09-19T07:03:26;5.07;;;1.75;;
1106;SDS011;540;49.448;8.612;2023-09-19T07:05:55;3.78;;;1.92;;
1106;SDS011;540;49.448;8.612;2023-09-19T07:08:24;5.07;;;1.75;;
1106;SDS011;540;49.448;8.612;2023-09-19T07:10:54;5.28;;;1.95;;
1106;SDS011;540;49.448;8.612;2023-09-19T07:13:23;4.93;;;1.60;;
1106;SDS011;540;49.448;8.612;2023-09-19T07:15:52;4.45;;;1.33;;
1106;SDS011;540;49.448;8.612;2023-09-19T07:18:20;4.28;;;1.48;;
1106;SDS011;540;49.448;8.612;2023-09-19T07:20:48;4.85;;;1.42;;
1106;SDS011;540;49.448;8.612;2023-09-19T07:23:16;10.43;;;2.03;;
1106;SDS011;540;49.448;8.612;2023-09-19T07:25:45;2.72;;;1.45;;
1106;SDS011;540;49.448;8.612;2023-09-19T07:28:16;4.75;;;1.70;;
1106;SDS011;540;49.448;8.612;2023-09-19T07:30:44;2.65;;;1.30;;
1106;SDS011;540;49.448;8.612;2023-09-19T07:33:12;3.28;;;1.65;;
1106;SDS011;540;49.448;8.612;2023-09-19T07:35:40;2.85;;;1.15;;
1106;SDS011;540;49.448;8.612;2023-09-19T07:38:12;3.58;;;1.30;;
1106;SDS011;540;49.448;8.612;2023-09-19T07:40:40;4.00;;;1.50;;
1106;SDS011;540;49.448;8.612;2023-09-19T07:43:07;3.80;;;1.20;;
1106;SDS011;540;49.448;8.612;2023-09-19T07:45:37;2.40;;;1.33;;
1106;SDS011;540;49.448;8.612;2023-09-19T07:48:05;3.92;;;1.70;;
1106;SDS011;540;49.448;8.612;2023-09-19T07:50:40;4.65;;;1.15;;
1106;SDS011;540;49.448;8.612;2023-09-19T07:53:09;3.03;;;1.02;;
1106;SDS011;540;49.448;8.612;2023-09-19T07:55:39;4.47;;;1.38;;
1106;SDS011;540;49.448;8.612;2023-09-19T07:58:07;3.03;;;1.20;;
1106;SDS011;540;49.448;8.612;2023-09-19T08:00:36;5.88;;;1.30;;
1106;SDS011;540;49.448;8.612;2023-09-19T08:03:05;2.70;;;1.25;;
1106;SDS011;540;49.448;8.612;2023-09-19T08:05:43;3.63;;;1.20;;
1106;SDS011;540;49.448;8.612;2023-09-19T08:08:13;2.33;;;1.02;;
1106;SDS011;540;49.448;8.612;2023-09-19T08:10:42;3.80;;;1.13;;
1106;SDS011;540;49.448;8.612;2023-09-19T08:13:15;5.38;;;1.30;;
1106;SDS011;540;49.448;8.612;2023-09-19T08:15:46;4.18;;;1.20;;
1106;SDS011;540;49.448;8.612;2023-09-19T08:18:16;3.75;;;1.17;;
1106;SDS011;540;49.448;8.612;2023-09-19T08:20:49;4.10;;;1.38;;
1106;SDS011;540;49.448;8.612;2023-09-19T08:23:18;3.03;;;1.17;;
1106;SDS011;540;49.448;8.612;2023-09-19T08:25:47;3.30;;;1.25;;
1106;SDS011;540;49.448;8.612;2023-09-19T08:28:17;2.35;;;1.17;;
1106;SDS011;540;49.448;8.612;2023-09-19T08:30:52;4.75;;;1.40;;
1106;SDS011;540;49.448;8.612;2023-09-19T08:33:22;2.15;;;0.90;;
1106;SDS011;540;49.448;8.612;2023-09-19T08:35:49;3.13;;;1.30;;
1106;SDS011;540;49.448;8.612;2023-09-19T08:38:18;5.32;;;1.30;;
1106;SDS011;540;49.448;8.612;2023-09-19T08:40:46;6.00;;;1.40;;
1106;SDS011;540;49.448;8.612;2023-09-19T08:43:14;1.48;;;0.82;;
1106;SDS011;540;49.448;8.612;2023-09-19T08:45:41;4.88;;;1.33;;
1106;SDS011;540;49.448;8.612;2023-09-19T08:48:17;3.65;;;1.20;;
1106;SDS011;540;49.448;8.612;2023-09-19T08:50:51;3.30;;;1.02;;
1106;SDS011;540;49.448;8.612;2023-09-19T08:53:26;5.95;;;1.55;;
1106;SDS011;540;49.448;8.612;2023-09-19T08:55:59;3.50;;;1.42;;
1106;SDS011;540;49.448;8.612;2023-09-19T08:58:30;2.75;;;1.13;;
1106;SDS011;540;49.448;8.612;2023-09-19T09:01:01;4.72;;;1.40;;
1106;SDS011;540;49.448;8.612;2023-09-19T09:03:33;2.17;;;1.45;;
1106;SDS011;540;49.448;8.612;2023-09-19T09:06:02;2.20;;;1.13;;
1106;SDS011;540;49.448;8.612;2023-09-19T09:08:30;3.88;;;1.55;;
1106;SDS011;540;49.448;8.612;2023-09-19T09:10:59;2.67;;;0.90;;
1106;SDS011;540;49.448;8.612;2023-09-19T09:13:27;3.00;;;1.20;;
1106;SDS011;540;49.448;8.612;2023-09-19T09:15:55;2.85;;;1.10;;
1106;SDS011;540;49.448;8.612;2023-09-19T09:18:25;4.57;;;1.45;;
1106;SDS011;540;49.448;8.612;2023-09-19T09:20:54;3.90;;;1.30;;
1106;SDS011;540;49.448;8.612;2023-09-19T09:23:22;2.47;;;1.50;;
1106;SDS011;540;49.448;8.612;2023-09-19T09:25:50;4.80;;;1.40;;
1106;SDS011;540;49.448;8.612;2023-09-19T09:28:24;3.97;;;1.13;;
1106;SDS011;540;49.448;8.612;2023-09-19T09:30:53;4.57;;;1.40;;
1106;SDS011;540;49.448;8.612;2023-09-19T09:33:21;3.10;;;1.27;;
1106;SDS011;540;49.448;8.612;2023-09-19T09:38:21;2.75;;;1.23;;
1106;SDS011;540;49.448;8.612;2023-09-19T09:40:52;2.25;;;1.33;;
1106;SDS011;540;49.448;8.612;2023-09-19T09:43:30;3.05;;;1.05;;
1106;SDS011;540;49.448;8.612;2023-09-19T09:46:08;2.72;;;1.00;;
1106;SDS011;540;49.448;8.612;2023-09-19T09:48:55;3.70;;;1.38;;
1106;SDS011;540;49.448;8.612;2023-09-19T09:51:38;1.73;;;1.10;;
1106;SDS011;540;49.448;8.612;2023-09-19T09:54:12;3.22;;;1.15;;
1106;SDS011;540;49.448;8.612;2023-09-19T09:56:55;3.72;;;1.63;;
1106;SDS011;540;49.448;8.612;2023-09-19T10:02:13;3.78;;;0.88;;
1106;SDS011;540;49.448;8.612;2023-09-19T10:04:47;2.95;;;1.52;;
1106;SDS011;540;49.448;8.612;2023-09-19T10:07:25;2.72;;;1.02;;
1106;SDS011;540;49.448;8.612;2023-09-19T10:10:00;4.78;;;1.10;;
1106;SDS011;540;49.448;8.612;2023-09-19T10:12:42;1.70;;;1.20;;
1106;SDS011;540;49.448;8.612;2023-09-19T10:15:15;1.48;;;1.02;;
1106;SDS011;540;49.448;8.612;2023-09-19T10:17:46;4.03;;;1.42;;
1106;SDS011;540;49.448;8.612;2023-09-19T10:20:15;2.72;;;1.17;;
1106;SDS011;540;49.448;8.612;2023-09-19T10:23:00;3.70;;;1.00;;
1106;SDS011;540;49.448;8.612;2023-09-19T10:25:37;4.65;;;0.95;;
1106;SDS011;540;49.448;8.612;2023-09-19T10:28:07;2.75;;;0.98;;
1106;SDS011;540;49.448;8.612;2023-09-19T10:30:40;4.07;;;1.00;;
1106;SDS011;540;49.448;8.612;2023-09-19T10:33:11;4.72;;;1.20;;
1106;SDS011;540;49.448;8.612;2023-09-19T10:35:41;1.73;;;0.95;;
1106;SDS011;540;49.448;8.612;2023-09-19T10:38:11;5.22;;;1.02;;
1106;SDS011;540;49.448;8.612;2023-09-19T10:40:48;3.13;;;1.33;;
1106;SDS011;540;49.448;8.612;2023-09-19T10:43:18;5.07;;;2.05;;
1106;SDS011;540;49.448;8.612;2023-09-19T10:45:48;3.67;;;1.10;;
1106;SDS011;540;49.448;8.612;2023-09-19T10:48:19;3.45;;;0.90;;
1106;SDS011;540;49.448;8.612;2023-09-19T10:50:55;2.28;;;1.17;;
1106;SDS011;540;49.448;8.612;2023-09-19T10:56:20;5.47;;;1.25;;
1106;SDS011;540;49.448;8.612;2023-09-19T10:59:05;2.03;;;0.93;;
1106;SDS011;540;49.448;8.612;2023-09-19T11:01:41;1.60;;;0.90;;
1106;SDS011;540;49.448;8.612;2023-09-19T11:04:21;2.75;;;0.90;;
1106;SDS011;540;49.448;8.612;2023-09-19T11:07:00;1.65;;;0.80;;
1106;SDS011;540;49.448;8.612;2023-09-19T11:09:44;5.00;;;1.77;;
1106;SDS011;540;49.448;8.612;2023-09-19T11:24:27;2.40;;;1.05;;
1106;SDS011;540;49.448;8.612;2023-09-19T11:27:12;3.22;;;1.13;;
1106;SDS011;540;49.448;8.612;2023-09-19T11:29:43;1.55;;;0.80;;
1106;SDS011;540;49.448;8.612;2023-09-19T11:32:13;1.38;;;1.00;;
1106;SDS011;540;49.448;8.612;2023-09-19T11:34:44;3.08;;;1.20;;
1106;SDS011;540;49.448;8.612;2023-09-19T11:40:26;2.35;;;1.10;;
1106;SDS011;540;49.448;8.612;2023-09-19T11:42:54;1.42;;;0.90;;
1106;SDS011;540;49.448;8.612;2023-09-19T11:48:29;3.08;;;0.98;;
1106;SDS011;540;49.448;8.612;2023-09-19T11:50:58;4.32;;;1.08;;
1106;SDS011;540;49.448;8.612;2023-09-19T11:53:33;3.47;;;1.10;;
1106;SDS011;540;49.448;8.612;2023-09-19T11:56:04;3.45;;;1.33;;
1106;SDS011;540;49.448;8.612;2023-09-19T11:58:37;2.90;;;1.10;;
1106;SDS011;540;49.448;8.612;2023-09-19T12:01:05;2.03;;;0.90;;
1106;SDS011;540;49.448;8.612;2023-09-19T12:03:41;2.40;;;1.00;;
1106;SDS011;540;49.448;8.612;2023-09-19T12:06:14;8.07;;;2.30;;
1106;SDS011;540;49.448;8.612;2023-09-19T12:08:42;1.77;;;0.95;;
1106;SDS011;540;49.448;8.612;2023-09-19T12:11:13;2.40;;;0.90;;
1106;SDS011;540;49.448;8.612;2023-09-19T12:13:46;3.72;;;1.00;;
1106;SDS011;540;49.448;8.612;2023-09-19T12:16:15;2.95;;;1.00;;
1106;SDS011;540;49.448;8.612;2023-09-19T12:18:49;2.60;;;1.13;;
1106;SDS011;540;49.448;8.612;2023-09-19T12:21:21;4.18;;;1.05;;
1106;SDS011;540;49.448;8.612;2023-09-19T12:23:59;2.67;;;0.90;;
1106;SDS011;540;49.448;8.612;2023-09-19T12:26:40;2.40;;;0.80;;
1106;SDS011;540;49.448;8.612;2023-09-19T12:29:13;2.58;;;1.27;;
1106;SDS011;540;49.448;8.612;2023-09-19T12:34:33;1.40;;;0.93;;
1106;SDS011;540;49.448;8.612;2023-09-19T12:37:05;2.40;;;1.42;;
1106;SDS011;540;49.448;8.612;2023-09-19T12:39:38;2.13;;;1.05;;
1106;SDS011;540;49.448;8.612;2023-09-19T12:42:09;1.23;;;0.80;;
1106;SDS011;540;49.448;8.612;2023-09-19T12:44:40;2.72;;;0.80;;
1106;SDS011;540;49.448;8.612;2023-09-19T12:47:12;1.30;;;0.90;;
1106;SDS011;540;49.448;8.612;2023-09-19T12:52:39;3.03;;;1.25;;
1106;SDS011;540;49.448;8.612;2023-09-19T12:55:18;4.38;;;1.48;;
1106;SDS011;540;49.448;8.612;2023-09-19T12:58:01;3.03;;;0.85;;
1106;SDS011;540;49.448;8.612;2023-09-19T13:00:36;3.78;;;1.27;;
1106;SDS011;540;49.448;8.612;2023-09-19T13:03:13;4.40;;;1.00;;
1106;SDS011;540;49.448;8.612;2023-09-19T13:05:53;2.72;;;0.90;;
1106;SDS011;540;49.448;8.612;2023-09-19T13:08:25;2.03;;;1.05;;
1106;SDS011;540;49.448;8.612;2023-09-19T13:11:06;2.60;;;1.10;;
1106;SDS011;540;49.448;8.612;2023-09-19T13:13:40;2.38;;;1.05;;
1106;SDS011;540;49.448;8.612;2023-09-19T13:16:15;3.35;;;1.17;;
1106;SDS011;540;49.448;8.612;2023-09-19T13:18:46;1.70;;;0.90;;
1106;SDS011;540;49.448;8.612;2023-09-19T13:21:27;2.05;;;1.05;;
1106;SDS011;540;49.448;8.612;2023-09-19T13:23:56;3.35;;;1.20;;
1106;SDS011;540;49.448;8.612;2023-09-19T13:26:44;2.35;;;1.00;;
1106;SDS011;540;49.448;8.612;2023-09-19T13:29:12;3.53;;;1.35;;
1106;SDS011;540;49.448;8.612;2023-09-19T13:31:45;1.63;;;0.90;;
1106;SDS011;540;49.448;8.612;2023-09-19T13:34:14;2.03;;;1.05;;
1106;SDS011;540;49.448;8.612;2023-09-19T13:36:45;3.45;;;1.02;;
1106;SDS011;540;49.448;8.612;2023-09-19T13:39:14;2.70;;;1.10;;
1106;SDS011;540;49.448;8.612;2023-09-19T13:41:43;1.15;;;0.88;;
1106;SDS011;540;49.448;8.612;2023-09-19T13:44:12;2.70;;;1.15;;
1106;SDS011;540;49.448;8.612;2023-09-19T13:46:40;3.90;;;1.10;;
1106;SDS011;540;49.448;8.612;2023-09-19T13:49:12;2.70;;;0.82;;
1106;SDS011;540;49.448;8.612;2023-09-19T13:51:40;3.70;;;0.88;;
1106;SDS011;540;49.448;8.612;2023-09-19T13:54:12;3.33;;;1.00;;
1106;SDS011;540;49.448;8.612;2023-09-19T13:56:40;2.72;;;0.90;;
1106;SDS011;540;49.448;8.612;2023-09-19T13:59:08;3.28;;;0.90;;
1106;SDS011;540;49.448;8.612;2023-09-19T14:01:36;6.70;;;1.00;;
1106;SDS011;540;49.448;8.612;2023-09-19T14:04:08;2.28;;;0.73;;
1106;SDS011;540;49.448;8.612;2023-09-19T14:06:37;1.20;;;1.00;;
1106;SDS011;540;49.448;8.612;2023-09-19T14:09:04;2.40;;;0.82;;
1106;SDS011;540;49.448;8.612;2023-09-19T14:11:35;2.97;;;1.08;;
1106;SDS011;540;49.448;8.612;2023-09-19T14:14:03;4.60;;;1.08;;
1106;SDS011;540;49.448;8.612;2023-09-19T14:16:32;2.40;;;0.80;;
1106;SDS011;540;49.448;8.612;2023-09-19T14:19:02;3.17;;;1.45;;
1106;SDS011;540;49.448;8.612;2023-09-19T14:21:31;1.30;;;0.82;;
1106;SDS011;540;49.448;8.612;2023-09-19T14:24:00;0.88;;;0.60;;
1106;SDS011;540;49.448;8.612;2023-09-19T14:26:27;4.32;;;1.10;;
1106;SDS011;540;49.448;8.612;2023-09-19T14:28:57;3.08;;;0.80;;
1106;SDS011;540;49.448;8.612;2023-09-19T14:31:25;2.05;;;1.00;;
1106;SDS011;540;49.448;8.612;2023-09-19T14:33:54;2.58;;;1.02;;
1106;SDS011;540;49.448;8.612;2023-09-19T14:36:23;1.58;;;1.17;;
1106;SDS011;540;49.448;8.612;2023-09-19T14:38:52;2.38;;;0.80;;
1106;SDS011;540;49.448;8.612;2023-09-19T14:41:20;0.85;;;0.70;;
1106;SDS011;540;49.448;8.612;2023-09-19T14:43:49;1.95;;;0.77;;
1106;SDS011;540;49.448;8.612;2023-09-19T14:46:18;0.98;;;0.77;;
1106;SDS011;540;49.448;8.612;2023-09-19T14:48:46;1.63;;;0.85;;
1106;SDS011;540;49.448;8.612;2023-09-19T14:51:14;1.60;;;0.60;;
1106;SDS011;540;49.448;8.612;2023-09-19T14:53:43;1.48;;;0.63;;
1106;SDS011;540;49.448;8.612;2023-09-19T14:56:12;4.38;;;1.05;;
1106;SDS011;540;49.448;8.612;2023-09-19T14:58:45;1.23;;;0.80;;
1106;SDS011;540;49.448;8.612;2023-09-19T15:01:13;2.67;;;1.10;;
1106;SDS011;540;49.448;8.612;2023-09-19T15:03:43;1.10;;;0.70;;
1106;SDS011;540;49.448;8.612;2023-09-19T15:06:13;2.08;;;0.85;;
1106;SDS011;540;49.448;8.612;2023-09-19T15:08:46;2.70;;;1.15;;
1106;SDS011;540;49.448;8.612;2023-09-19T15:11:16;2.15;;;0.90;;
1106;SDS011;540;49.448;8.612;2023-09-19T15:13:45;1.58;;;0.95;;
1106;SDS011;540;49.448;8.612;2023-09-19T15:16:14;1.60;;;1.13;;
1106;SDS011;540;49.448;8.612;2023-09-19T15:18:44;1.08;;;0.80;;
1106;SDS011;540;49.448;8.612;2023-09-19T15:21:14;2.55;;;0.80;;
1106;SDS011;540;49.448;8.612;2023-09-19T15:23:42;1.38;;;0.75;;
1106;SDS011;540;49.448;8.612;2023-09-19T15:26:10;2.38;;;0.90;;
1106;SDS011;540;49.448;8.612;2023-09-19T15:28:41;1.75;;;0.90;;
1106;SDS011;540;49.448;8.612;2023-09-19T15:31:10;2.33;;;1.10;;
1106;SDS011;540;49.448;8.612;2023-09-19T15:33:40;1.75;;;0.77;;
1106;SDS011;540;49.448;8.612;2023-09-19T15:36:09;1.90;;;0.95;;
1106;SDS011;540;49.448;8.612;2023-09-19T15:38:54;1.85;;;0.90;;
1106;SDS011;540;49.448;8.612;2023-09-19T15:41:24;1.70;;;1.20;;
1106;SDS011;540;49.448;8.612;2023-09-19T15:43:53;1.50;;;0.70;;
1106;SDS011;540;49.448;8.612;2023-09-19T15:46:21;2.08;;;0.85;;
1106;SDS011;540;49.448;8.612;2023-09-19T15:48:49;1.92;;;0.80;;
1106;SDS011;540;49.448;8.612;2023-09-19T15:51:20;1.02;;;0.77;;
1106;SDS011;540;49.448;8.612;2023-09-19T15:53:48;3.97;;;0.80;;
1106;SDS011;540;49.448;8.612;2023-09-19T15:56:19;2.80;;;1.25;;
1106;SDS011;540;49.448;8.612;2023-09-19T15:58:49;1.38;;;0.82;;
1106;SDS011;540;49.448;8.612;2023-09-19T16:01:21;2.55;;;1.17;;
1106;SDS011;540;49.448;8.612;2023-09-19T16:03:50;2.03;;;0.82;;
1106;SDS011;540;49.448;8.612;2023-09-19T16:06:23;1.88;;;0.65;;
1106;SDS011;540;49.448;8.612;2023-09-19T16:08:53;0.95;;;0.65;;
1106;SDS011;540;49.448;8.612;2023-09-19T16:11:22;2.70;;;0.80;;
1106;SDS011;540;49.448;8.612;2023-09-19T16:13:51;1.92;;;1.00;;
1106;SDS011;540;49.448;8.612;2023-09-19T16:16:20;1.40;;;1.05;;
1106;SDS011;540;49.448;8.612;2023-09-19T16:18:51;2.20;;;1.48;;
1106;SDS011;540;49.448;8.612;2023-09-19T16:21:23;1.50;;;0.65;;
1106;SDS011;540;49.448;8.612;2023-09-19T16:23:53;1.85;;;0.80;;